Time;durP1;ratioP1;P1;durP2;ratioP2;P2;SDS_P1;SDS_P2;PMS_P1;PMS_P2;Temp;Humidity;BMP_temperature;BMP_pressure;BME280_temperature;BME280_humidity;BME280_pressure;Samples;Min_cycle;Max_cycle;Signal;HPM_P1;HPM_P2
2021/05/29 00:02:21;;;;;;;5.00;2.85;;;;;;;15.29;56.57;98892.22;5133374;27;20122;-93
2021/05/29 00:04:47;;;;;;;4.13;2.85;;;;;;;15.22;57.69;98885.41;5129446;27;20042;-91
2021/05/29 00:07:14;;;;;;;4.18;2.70;;;;;;;15.08;58.10;98894.06;5133707;27;20062;-90
2021/05/29 00:09:40;;;;;;;7.20;3.22;;;;;;;14.91;59.46;98889.44;5124544;27;20043;-92
2021/05/29 00:12:08;;;;;;;5.90;3.00;;;;;;;14.93;59.19;98914.34;5133616;27;20130;-93
2021/05/29 00:14:36;;;;;;;5.65;2.80;;;;;;;14.71;59.91;98892.97;5133261;27;20495;-91
2021/05/29 00:17:03;;;;;;;4.18;2.58;;;;;;;14.70;58.62;98899.22;5135268;28;20037;-92
2021/05/29 00:19:29;;;;;;;6.07;3.00;;;;;;;14.64;58.97;98891.44;5131074;28;20443;-93
2021/05/29 00:21:56;;;;;;;7.43;2.78;;;;;;;14.64;58.65;98907.50;5135758;27;20123;-92
2021/05/29 00:24:22;;;;;;;4.72;2.70;;;;;;;14.63;59.85;98911.13;5134649;27;20044;-92
2021/05/29 00:26:48;;;;;;;5.20;2.90;;;;;;;14.43;60.97;98878.00;5133232;27;20054;-91
2021/05/29 00:29:14;;;;;;;4.72;2.80;;;;;;;14.51;60.19;98907.13;5129116;27;20044;-93
2021/05/29 00:31:41;;;;;;;5.95;2.95;;;;;;;14.47;60.34;98903.72;5112718;28;20072;-94
2021/05/29 00:34:07;;;;;;;5.85;2.90;;;;;;;14.37;60.39;98896.97;5117331;28;20039;-90
2021/05/29 00:36:33;;;;;;;4.50;2.80;;;;;;;14.22;60.99;98887.75;5133486;27;20050;-91
2021/05/29 00:39:00;;;;;;;5.75;2.67;;;;;;;14.18;61.19;98886.13;5134382;27;20040;-90
2021/05/29 00:41:25;;;;;;;5.72;2.80;;;;;;;14.03;61.74;98884.97;5133549;28;20047;-89
2021/05/29 00:43:51;;;;;;;4.43;3.00;;;;;;;14.06;62.43;98900.88;5132796;27;20501;-92
2021/05/29 00:46:17;;;;;;;6.15;2.88;;;;;;;13.89;63.43;98898.00;5132664;27;20434;-90
2021/05/29 00:48:43;;;;;;;4.47;2.95;;;;;;;13.79;63.41;98899.25;5133002;28;20114;-93
2021/05/29 00:51:09;;;;;;;6.00;3.33;;;;;;;13.70;64.27;98904.00;5133174;27;20093;-93
2021/05/29 00:53:36;;;;;;;5.90;3.47;;;;;;;13.63;64.51;98901.66;5133979;27;20438;-91
2021/05/29 00:56:05;;;;;;;6.20;3.50;;;;;;;13.61;64.34;98901.69;5134653;27;20047;-92
2021/05/29 00:58:31;;;;;;;5.70;3.25;;;;;;;13.63;63.87;98905.19;5122464;27;20044;-93
2021/05/29 01:00:58;;;;;;;7.82;3.15;;;;;;;13.45;63.43;98881.84;5118900;28;20047;-90
2021/05/29 01:03:24;;;;;;;5.43;3.08;;;;;;;13.55;63.12;98896.56;5119347;28;20630;-94
2021/05/29 01:05:50;;;;;;;7.50;3.40;;;;;;;13.63;63.66;98907.00;5119469;28;20063;-92
2021/05/29 01:08:16;;;;;;;6.55;3.08;;;;;;;13.46;63.42;98903.13;5118971;28;20038;-90
2021/05/29 01:10:43;;;;;;;6.75;3.00;;;;;;;13.33;63.92;98875.13;5119769;28;20028;-92
2021/05/29 01:13:12;;;;;;;6.18;3.10;;;;;;;13.35;63.58;98892.84;5121026;28;20039;-93
2021/05/29 01:15:41;;;;;;;5.68;2.90;;;;;;;13.48;62.26;98887.06;5120697;28;20039;-92
2021/05/29 01:18:15;;;;;;;5.03;2.72;;;;;;;13.83;60.54;98888.38;5121347;28;20402;-92
2021/05/29 01:20:42;;;;;;;3.60;2.50;;;;;;;13.96;59.48;98878.09;5121628;28;20085;-92
2021/05/29 01:23:10;;;;;;;5.05;2.80;;;;;;;14.03;58.43;98850.22;5121036;28;20038;-92
2021/05/29 01:28:31;;;;;;;5.43;3.30;;;;;;;14.16;61.23;98875.53;5116039;28;20043;-91
2021/05/29 01:31:07;;;;;;;4.53;2.85;;;;;;;14.21;61.56;98893.19;5115375;28;20044;-91
2021/05/29 01:33:35;;;;;;;5.32;3.00;;;;;;;14.03;62.72;98882.28;5117200;28;20043;-90
2021/05/29 01:36:04;;;;;;;5.03;3.00;;;;;;;13.85;63.19;98878.50;5117054;28;20044;-93
2021/05/29 01:38:32;;;;;;;6.18;3.42;;;;;;;13.81;63.23;98876.03;5117365;28;20047;-92
2021/05/29 01:41:01;;;;;;;7.25;3.28;;;;;;;13.63;63.51;98873.13;5117804;28;20396;-91
2021/05/29 01:43:28;;;;;;;5.50;3.20;;;;;;;13.49;64.29;98865.63;5117637;28;20048;-90
2021/05/29 01:45:54;;;;;;;6.13;3.15;;;;;;;13.37;64.64;98862.53;5116419;28;20074;-93
2021/05/29 01:48:21;;;;;;;6.22;3.22;;;;;;;13.25;65.84;98870.06;5118166;28;20039;-92
2021/05/29 01:50:47;;;;;;;5.32;3.50;;;;;;;13.21;65.94;98872.91;5118851;28;20063;-93
2021/05/29 01:53:17;;;;;;;5.80;3.40;;;;;;;13.19;65.53;98880.94;5119377;28;20085;-92
2021/05/29 01:55:46;;;;;;;6.53;3.20;;;;;;;13.07;66.17;98886.72;5119442;28;20044;-91
2021/05/29 01:58:13;;;;;;;4.93;3.08;;;;;;;12.89;66.26;98897.13;5118985;28;20046;-92
2021/05/29 02:00:39;;;;;;;6.05;3.13;;;;;;;12.74;66.45;98887.84;5119083;28;20111;-91
2021/05/29 02:03:05;;;;;;;7.60;3.45;;;;;;;12.54;66.88;98872.50;5119369;28;20133;-91
2021/05/29 02:05:33;;;;;;;5.93;3.30;;;;;;;12.45;67.19;98862.16;5116795;28;20065;-92
2021/05/29 02:07:59;;;;;;;5.13;3.35;;;;;;;12.51;67.08;98864.63;5117928;28;20067;-90
2021/05/29 02:10:27;;;;;;;4.80;3.00;;;;;;;12.60;67.38;98876.78;5117786;28;20492;-92
2021/05/29 02:12:55;;;;;;;5.85;3.13;;;;;;;12.54;67.30;98863.63;5118923;27;20039;-91
2021/05/29 02:15:23;;;;;;;4.30;2.90;;;;;;;12.53;67.27;98864.53;5118193;28;20050;-91
2021/05/29 02:17:51;;;;;;;4.53;3.00;;;;;;;12.53;67.27;98864.53;5119110;28;20048;-91
2021/05/29 02:20:19;;;;;;;4.93;2.90;;;;;;;12.44;67.64;98856.84;5118179;28;20464;-91
2021/05/29 02:22:45;;;;;;;7.00;3.25;;;;;;;12.41;67.80;98855.16;5118042;28;20123;-91
2021/05/29 02:25:11;;;;;;;4.38;2.95;;;;;;;12.28;68.12;98862.69;5118381;27;20554;-91
2021/05/29 02:27:37;;;;;;;6.68;2.80;;;;;;;12.27;67.60;98855.63;5119333;28;20048;-93
2021/05/29 02:30:06;;;;;;;6.40;3.55;;;;;;;12.45;66.85;98866.63;5119407;28;20184;-92
2021/05/29 02:32:32;;;;;;;7.07;3.20;;;;;;;12.59;66.29;98860.81;5120153;28;20040;-94
2021/05/29 02:34:58;;;;;;;4.78;3.15;;;;;;;12.73;65.87;98858.56;5120272;28;20043;-92
2021/05/29 02:37:24;;;;;;;6.53;3.25;;;;;;;12.83;66.03;98851.94;5118766;28;20044;-91
2021/05/29 02:39:50;;;;;;;4.60;3.10;;;;;;;12.97;65.85;98856.81;5116346;28;20086;-92
2021/05/29 02:42:15;;;;;;;6.60;3.40;;;;;;;12.93;65.98;98844.50;5115707;28;20499;-93
2021/05/29 02:44:41;;;;;;;6.03;3.58;;;;;;;12.92;66.93;98850.75;5115810;28;20553;-91
2021/05/29 02:47:08;;;;;;;7.38;3.78;;;;;;;12.89;66.82;98857.06;5114165;28;20419;-93
2021/05/29 02:49:34;;;;;;;9.43;3.60;;;;;;;12.83;67.14;98854.63;5116083;28;20039;-92
2021/05/29 02:52:00;;;;;;;5.68;3.33;;;;;;;12.61;67.42;98834.94;5115663;28;20477;-93
2021/05/29 02:54:26;;;;;;;6.30;3.47;;;;;;;12.51;68.31;98839.72;5115639;28;20043;-92
2021/05/29 02:56:51;;;;;;;5.43;3.30;;;;;;;12.49;68.54;98858.47;5115245;28;20036;-92
2021/05/29 02:59:17;;;;;;;6.68;3.42;;;;;;;12.41;69.27;98856.97;5115345;28;20065;-91
2021/05/29 03:01:43;;;;;;;8.98;3.00;;;;;;;12.29;69.44;98852.88;5114437;28;20043;-93
2021/05/29 03:04:10;;;;;;;7.75;3.70;;;;;;;12.24;69.28;98850.38;5115270;28;20043;-94
2021/05/29 03:06:36;;;;;;;5.15;3.10;;;;;;;12.26;70.23;98864.53;5115152;28;20139;-93
2021/05/29 03:09:03;;;;;;;8.02;3.50;;;;;;;12.15;69.82;98850.69;5115280;28;20051;-93
2021/05/29 03:11:32;;;;;;;4.93;3.28;;;;;;;12.18;69.82;98855.91;5115644;28;20122;-92
2021/05/29 03:13:58;;;;;;;5.65;2.95;;;;;;;12.01;69.63;98835.13;5115642;28;20062;-93
2021/05/29 03:16:24;;;;;;;6.15;3.20;;;;;;;12.18;69.04;98857.72;5114840;28;20052;-91
2021/05/29 03:18:50;;;;;;;5.20;3.08;;;;;;;12.17;69.41;98854.19;5115235;28;20392;-92
2021/05/29 03:21:17;;;;;;;5.60;3.00;;;;;;;12.14;69.86;98848.94;5114723;28;20032;-91
2021/05/29 03:23:42;;;;;;;4.03;3.13;;;;;;;12.20;69.58;98861.19;5115254;28;20489;-91
2021/05/29 03:26:09;;;;;;;6.88;3.17;;;;;;;12.36;66.82;98845.56;5117480;28;20039;-91
2021/05/29 03:28:35;;;;;;;5.10;3.00;;;;;;;12.74;65.22;98845.13;5117975;27;20524;-92
2021/05/29 03:31:01;;;;;;;4.90;2.80;;;;;;;13.01;64.42;98834.44;5116745;28;20058;-92
2021/05/29 03:33:27;;;;;;;5.28;2.72;;;;;;;13.08;64.14;98832.41;5118249;28;20039;-90
2021/05/29 03:35:53;;;;;;;5.50;2.78;;;;;;;13.20;64.14;98849.78;5117949;28;20047;-92
2021/05/29 03:38:20;;;;;;;5.88;2.53;;;;;;;13.09;64.48;98848.34;5117956;28;20045;-93
2021/05/29 03:40:46;;;;;;;6.65;3.10;;;;;;;12.76;65.79;98830.88;5117193;28;20059;-94
2021/05/29 03:43:12;;;;;;;5.20;2.70;;;;;;;12.65;66.11;98831.25;5117588;28;20040;-91
2021/05/29 03:45:38;;;;;;;7.43;3.45;;;;;;;12.67;66.55;98858.75;5117286;28;20499;-90
2021/05/29 03:48:05;;;;;;;6.85;3.35;;;;;;;12.56;67.93;98855.59;5118318;28;20496;-91
2021/05/29 03:50:32;;;;;;;5.45;3.15;;;;;;;12.44;68.52;98860.38;5118810;28;20071;-90
2021/05/29 03:52:58;;;;;;;4.68;3.05;;;;;;;12.40;69.14;98869.41;5118243;28;20046;-92
2021/05/29 03:55:25;;;;;;;4.75;2.90;;;;;;;12.36;69.08;98866.91;5108346;28;20070;-92
2021/05/29 03:57:52;;;;;;;5.05;3.08;;;;;;;12.24;69.23;98847.72;5117215;28;20044;-92
2021/05/29 04:00:20;;;;;;;5.72;3.33;;;;;;;12.21;69.44;98845.16;5116767;28;20042;-92
2021/05/29 04:02:46;;;;;;;4.68;3.08;;;;;;;12.23;70.00;98853.09;5118240;28;20047;-91
2021/05/29 04:05:13;;;;;;;5.63;3.42;;;;;;;12.36;69.83;98874.91;5118563;28;20039;-94
2021/05/29 04:07:39;;;;;;;6.30;3.30;;;;;;;12.32;70.06;98866.16;5118247;28;20040;-92
2021/05/29 04:10:07;;;;;;;6.75;3.45;;;;;;;12.34;70.06;98874.97;5118239;28;20487;-92
2021/05/29 04:12:34;;;;;;;6.13;3.38;;;;;;;12.15;69.94;98845.34;5119007;28;20177;-92
2021/05/29 04:15:00;;;;;;;6.18;3.60;;;;;;;12.29;70.56;98871.56;5118385;28;20040;-93
2021/05/29 04:17:26;;;;;;;8.30;3.75;;;;;;;12.28;70.54;98868.03;5118884;28;20116;-93
2021/05/29 04:19:52;;;;;;;5.63;3.38;;;;;;;12.24;70.61;98849.53;5118066;28;20059;-90
2021/05/29 04:22:17;;;;;;;8.55;3.30;;;;;;;12.31;70.40;98875.06;5118054;28;20442;-93
2021/05/29 04:24:44;;;;;;;5.13;3.53;;;;;;;12.17;70.72;98858.66;5117920;28;20035;-90
2021/05/29 04:27:10;;;;;;;5.30;3.17;;;;;;;12.18;70.96;98858.56;5117766;28;20035;-91
2021/05/29 04:29:37;;;;;;;6.95;3.17;;;;;;;12.20;70.61;98872.72;5118766;28;20059;-92
2021/05/29 04:32:04;;;;;;;5.47;3.33;;;;;;;12.06;70.54;98854.53;5117971;28;20416;-92
2021/05/29 04:34:30;;;;;;;5.07;3.60;;;;;;;12.23;70.58;98877.97;5121377;28;20061;-93
2021/05/29 04:36:55;;;;;;;8.02;3.45;;;;;;;12.33;69.79;98874.06;5120756;28;20093;-92
2021/05/29 04:39:21;;;;;;;5.75;3.70;;;;;;;12.37;70.42;98866.84;5121141;28;20113;-93
2021/05/29 04:41:47;;;;;;;5.30;3.40;;;;;;;12.39;70.39;98853.47;5120849;28;20050;-92
2021/05/29 04:44:13;;;;;;;5.05;3.35;;;;;;;12.58;69.50;98873.28;5120625;28;20103;-94
2021/05/29 04:46:41;;;;;;;7.07;3.03;;;;;;;12.60;69.36;98860.75;5119370;28;20062;-92
2021/05/29 04:49:07;;;;;;;7.60;3.25;;;;;;;12.69;69.47;98855.09;5121233;28;20067;-91
2021/05/29 04:51:33;;;;;;;5.35;3.00;;;;;;;12.66;69.46;98841.00;5121950;28;20035;-91
2021/05/29 04:53:58;;;;;;;7.53;3.95;;;;;;;12.82;68.93;98860.03;5121429;28;20048;-92
2021/05/29 04:56:24;;;;;;;5.10;3.83;;;;;;;13.03;68.99;98874.41;5120838;28;20055;-92
2021/05/29 04:58:50;;;;;;;9.38;4.40;;;;;;;13.18;67.40;98860.50;5121280;28;20055;-94
2021/05/29 05:01:16;;;;;;;10.95;3.95;;;;;;;13.81;65.31;98871.53;5119003;27;20123;-93
2021/05/29 05:03:43;;;;;;;5.97;3.80;;;;;;;14.54;62.09;98851.66;5119832;28;20039;-94
2021/05/29 05:06:11;;;;;;;7.72;3.97;;;;;;;15.25;59.75;98851.34;5119381;28;20040;-91
2021/05/29 05:08:37;;;;;;;7.68;3.83;;;;;;;15.85;57.30;98835.19;5120096;27;20061;-93
2021/05/29 05:11:02;;;;;;;9.35;3.67;;;;;;;16.40;55.49;98859.34;5118859;27;20027;-94
2021/05/29 05:13:29;;;;;;;6.57;3.60;;;;;;;16.72;54.56;98843.44;5119358;28;20047;-94
2021/05/29 05:15:55;;;;;;;8.88;3.40;;;;;;;17.17;52.93;98842.03;5119310;28;20048;-92
2021/05/29 05:18:22;;;;;;;5.95;3.42;;;;;;;17.19;52.88;98847.31;5119307;28;20044;-91
2021/05/29 05:20:49;;;;;;;5.75;3.60;;;;;;;17.25;53.15;98863.13;5119298;28;20125;-92
2021/05/29 05:23:15;;;;;;;6.60;3.70;;;;;;;17.37;52.50;98853.53;5117243;28;20042;-92
2021/05/29 05:25:41;;;;;;;6.72;3.50;;;;;;;17.58;51.53;98844.31;5115609;28;20032;-93
2021/05/29 05:28:07;;;;;;;6.55;3.38;;;;;;;17.73;51.22;98853.34;5118160;27;20101;-93
2021/05/29 05:30:32;;;;;;;10.00;3.70;;;;;;;17.67;51.02;98837.56;5116115;28;20131;-94
2021/05/29 05:33:03;;;;;;;13.05;4.72;;;;;;;17.85;50.93;98852.72;5116878;28;20066;-94
2021/05/29 05:35:29;;;;;;;8.35;3.65;;;;;;;17.88;50.84;98861.59;5116774;28;20039;-92
2021/05/29 05:37:56;;;;;;;7.28;3.50;;;;;;;17.88;50.93;98856.19;5116590;28;20063;-93
2021/05/29 05:40:22;;;;;;;11.13;3.55;;;;;;;18.00;50.52;98861.78;5116892;28;20079;-92
2021/05/29 05:42:48;;;;;;;6.82;3.42;;;;;;;18.20;50.13;98860.63;5116840;28;20040;-91
2021/05/29 05:45:14;;;;;;;6.82;3.65;;;;;;;18.18;50.11;98849.09;5114185;27;20065;-91
2021/05/29 05:47:40;;;;;;;6.63;3.53;;;;;;;18.11;50.53;98857.59;5115817;28;20423;-92
2021/05/29 05:50:09;;;;;;;6.55;3.33;;;;;;;18.30;50.15;98855.59;5116010;28;20035;-92
2021/05/29 05:52:35;;;;;;;5.18;3.30;;;;;;;18.41;50.50;98861.25;5115662;28;20130;-94
2021/05/29 05:55:03;;;;;;;5.05;3.33;;;;;;;18.41;50.26;98846.88;5116089;28;20484;-93
2021/05/29 05:57:28;;;;;;;7.85;3.50;;;;;;;18.68;50.17;98861.44;5115773;28;20040;-94
2021/05/29 05:59:54;;;;;;;5.47;3.45;;;;;;;18.67;49.86;98859.72;5116252;28;20043;-90
2021/05/29 06:02:20;;;;;;;7.28;3.53;;;;;;;18.75;49.71;98856.56;5114194;28;20036;-91
2021/05/29 06:04:46;;;;;;;7.03;3.90;;;;;;;18.98;48.95;98855.22;5116150;28;20063;-91
2021/05/29 06:07:12;;;;;;;5.13;2.90;;;;;;;18.57;49.22;98850.44;5116476;28;20480;-92
2021/05/29 06:09:37;;;;;;;9.00;4.20;;;;;;;18.50;49.67;98864.34;5115705;28;20094;-91
2021/05/29 06:12:05;;;;;;;7.43;3.83;;;;;;;18.68;48.50;98869.53;5116138;28;20039;-92
2021/05/29 06:20:31;;;;;;;14.75;5.13;;;;;;;18.31;49.11;98864.53;5194569;27;20830;-93
2021/05/29 06:22:57;;;;;;;7.07;4.10;;;;;;;17.76;50.26;98874.72;5163041;27;20074;-95
2021/05/29 06:25:22;;;;;;;6.82;3.90;;;;;;;17.68;50.85;98866.19;5165245;27;20038;-92
2021/05/29 06:27:48;;;;;;;6.13;2.88;;;;;;;17.45;50.13;98851.31;5162865;27;20066;-92
2021/05/29 06:30:15;;;;;;;6.43;2.88;;;;;;;17.52;49.81;98852.72;5168013;27;20031;-91
2021/05/29 06:32:41;;;;;;;5.97;3.42;;;;;;;17.42;51.51;98870.31;5168856;27;20031;-91
2021/05/29 06:35:08;;;;;;;6.15;2.95;;;;;;;17.80;49.67;98851.19;5163959;27;20038;-92
2021/05/29 06:37:36;;;;;;;5.82;2.80;;;;;;;18.12;49.73;98860.19;5157765;27;20039;-90
2021/05/29 06:40:04;;;;;;;8.23;3.70;;;;;;;17.93;49.94;98864.88;5167563;27;20042;-92
2021/05/29 06:42:30;;;;;;;5.88;3.15;;;;;;;18.08;47.76;98869.41;5162768;27;20384;-91
2021/05/29 06:44:55;;;;;;;5.53;3.20;;;;;;;18.18;48.79;98867.94;5161569;27;20137;-92
2021/05/29 06:47:21;;;;;;;6.50;3.20;;;;;;;18.89;47.46;98866.56;5167169;27;20556;-90
2021/05/29 06:49:47;;;;;;;8.15;3.45;;;;;;;19.32;46.76;98874.72;5165229;27;20090;-92
2021/05/29 06:52:16;;;;;;;6.43;2.90;;;;;;;19.70;42.61;98874.22;5168871;27;20035;-92
2021/05/29 07:00:42;;;;;;;8.15;3.60;;;;;;;21.07;41.23;98868.84;5089323;27;20362;-93
2021/05/29 07:03:08;;;;;;;8.27;3.75;;;;;;;21.08;41.66;98865.19;5092709;28;20052;-92
2021/05/29 07:05:34;;;;;;;7.40;3.40;;;;;;;21.25;41.77;98861.31;5091569;28;20036;-90
2021/05/29 07:08:00;;;;;;;7.53;3.65;;;;;;;21.47;40.37;98862.53;5090748;28;20489;-91
2021/05/29 07:10:25;;;;;;;10.27;3.70;;;;;;;21.39;40.53;98854.94;5090867;28;20045;-91
2021/05/29 07:12:51;;;;;;;5.95;3.42;;;;;;;21.39;40.10;98848.66;5091403;28;20033;-90
2021/05/29 07:15:17;;;;;;;7.20;3.40;;;;;;;21.28;40.24;98850.28;5090513;28;20051;-91
2021/05/29 07:17:46;;;;;;;8.40;3.28;;;;;;;21.83;39.79;98852.78;5091528;28;20051;-91
2021/05/29 07:20:12;;;;;;;;;;;;;;;22.02;39.63;98861.31;5089540;28;20493;-91
2021/05/29 07:22:38;;;;;;;8.45;3.50;;;;;;;21.99;40.06;98858.84;5090589;28;19926;-91
2021/05/29 07:25:05;;;;;;;8.00;4.22;;;;;;;22.26;39.00;98850.53;5091393;28;20153;-92
2021/05/29 07:27:31;;;;;;;6.13;3.10;;;;;;;22.56;38.95;98855.53;5090694;28;20713;-89
2021/05/29 07:29:58;;;;;;;8.73;3.33;;;;;;;23.06;37.21;98870.81;5089747;28;20044;-91
2021/05/29 07:32:23;;;;;;;5.70;3.20;;;;;;;22.95;37.15;98850.78;5091137;28;20068;-93
2021/05/29 07:34:51;;;;;;;7.88;3.30;;;;;;;22.95;36.50;98850.78;5090563;28;20433;-94
2021/05/29 07:37:17;;;;;;;5.80;3.47;;;;;;;22.93;37.43;98860.88;5090699;28;20041;-90
2021/05/29 07:39:43;;;;;;;6.45;3.28;;;;;;;23.02;36.64;98848.47;5090712;28;20038;-91
2021/05/29 07:42:09;;;;;;;7.95;3.30;;;;;;;23.01;36.74;98854.91;5090372;28;20048;-89
2021/05/29 07:44:35;;;;;;;7.55;3.25;;;;;;;22.28;38.19;98850.44;5090027;28;20094;-91
2021/05/29 07:47:01;;;;;;;6.20;3.28;;;;;;;21.99;38.86;98849.81;5088363;28;20032;-90
2021/05/29 07:49:27;;;;;;;7.30;3.53;;;;;;;21.36;39.92;98847.06;5090066;28;20036;-91
2021/05/29 07:51:53;;;;;;;7.90;3.58;;;;;;;21.57;39.97;98841.97;5089989;28;20107;-92
2021/05/29 07:54:19;;;;;;;7.70;3.38;;;;;;;21.66;40.19;98853.97;5089786;28;20124;-91
2021/05/29 07:56:45;;;;;;;7.13;3.67;;;;;;;21.51;39.46;98842.41;5090219;28;20459;-93
2021/05/29 07:59:15;;;;;;;8.25;3.60;;;;;;;21.87;39.47;98844.31;5080167;28;20543;-91
2021/05/29 08:01:41;;;;;;;9.35;3.55;;;;;;;22.27;38.53;98829.72;5089525;28;20040;-91
2021/05/29 08:04:07;;;;;;;9.13;3.90;;;;;;;22.62;38.18;98829.81;5090960;28;20097;-91
2021/05/29 08:06:36;;;;;;;;;;;;;;;22.79;38.41;98844.78;5095198;28;20048;-92
2021/05/29 08:09:05;;;;;;;9.02;3.88;;;;;;;23.01;37.79;98849.47;5094667;28;19916;-93
2021/05/29 08:11:33;;;;;;;10.07;3.92;;;;;;;23.01;37.91;98821.47;5083209;28;20043;-89
2021/05/29 08:13:59;;;;;;;8.10;3.78;;;;;;;23.20;37.55;98821.75;5079866;28;20040;-92
2021/05/29 08:16:25;;;;;;;8.48;3.90;;;;;;;23.46;36.58;98838.69;5080448;28;20051;-92
2021/05/29 08:18:53;;;;;;;8.73;3.60;;;;;;;23.72;37.21;98843.91;5079344;28;20037;-92
2021/05/29 08:21:19;;;;;;;5.65;3.00;;;;;;;23.85;37.00;98827.53;5080649;28;20044;-91
2021/05/29 08:23:45;;;;;;;9.52;4.03;;;;;;;22.82;37.92;98816.59;5079822;28;20043;-93
2021/05/29 08:26:13;;;;;;;8.98;3.35;;;;;;;23.24;38.09;98828.69;5079561;28;20037;-90
2021/05/29 08:28:39;;;;;;;9.30;3.70;;;;;;;23.05;39.48;98831.09;5082336;28;20040;-90
2021/05/29 08:31:06;;;;;;;8.50;3.50;;;;;;;22.53;40.67;98831.38;5082766;28;20405;-90
2021/05/29 08:33:32;;;;;;;9.45;3.50;;;;;;;23.01;38.00;98808.78;5079318;28;20131;-93
2021/05/29 08:35:58;;;;;;;7.65;3.15;;;;;;;23.42;38.06;98814.66;5077974;28;20040;-94
2021/05/29 08:38:24;;;;;;;8.43;3.58;;;;;;;23.88;37.34;98836.31;5076816;28;20382;-93
2021/05/29 08:40:50;;;;;;;6.63;3.50;;;;;;;23.88;37.91;98806.44;5079235;28;20052;-91
2021/05/29 08:43:18;;;;;;;7.13;3.28;;;;;;;23.57;37.31;98813.41;5080981;28;20047;-93
2021/05/29 08:45:44;;;;;;;10.05;3.38;;;;;;;23.81;37.87;98810.63;5078682;28;20053;-94
2021/05/29 08:48:12;;;;;;;9.95;3.60;;;;;;;24.08;37.17;98806.66;5077556;28;20052;-91
2021/05/29 08:53:42;;;;;;;7.15;3.60;;;;;;;24.73;35.96;98827.50;5157003;27;20858;-91
2021/05/29 08:56:09;;;;;;;5.43;3.30;;;;;;;24.93;35.73;98819.50;5156138;27;20062;-93
2021/05/29 08:58:35;;;;;;;6.40;3.65;;;;;;;24.87;35.72;98833.63;5155526;27;20058;-91
2021/05/29 09:01:02;;;;;;;6.45;3.35;;;;;;;24.90;36.63;98825.22;5154772;27;20391;-92
2021/05/29 09:03:47;;;;;;;9.18;3.42;;;;;;;24.65;35.96;98816.41;5155820;27;20043;-90
2021/05/29 09:06:15;;;;;;;6.50;3.50;;;;;;;24.73;36.34;98813.03;5155086;27;20043;-90
2021/05/29 09:08:56;;;;;;;10.48;3.88;;;;;;;24.64;36.65;98809.25;5153770;27;20118;-90
2021/05/29 09:11:47;;;;;;;10.25;3.95;;;;;;;24.71;36.66;98831.34;5147760;27;20028;-92
2021/05/29 09:14:38;;;;;;;11.07;4.03;;;;;;;24.87;36.75;98828.16;5141044;27;21039;-91
2021/05/29 09:17:07;;;;;;;8.02;4.00;;;;;;;24.21;37.77;98820.94;5147100;27;20061;-91
2021/05/29 09:20:05;;;;;;;6.70;3.80;;;;;;;24.73;36.90;98827.50;5153114;27;20030;-92
2021/05/29 09:22:34;;;;;;;6.82;3.72;;;;;;;24.71;36.59;98815.88;5089297;28;20040;-92
2021/05/29 09:25:10;;;;;;;8.07;3.55;;;;;;;24.23;38.19;98816.25;5086825;28;20104;-91
2021/05/29 09:27:39;;;;;;;8.63;3.63;;;;;;;24.16;38.11;98817.75;5086090;28;20112;-92
2021/05/29 09:30:08;;;;;;;10.73;3.38;;;;;;;24.21;38.27;98812.78;5083044;28;20040;-91
2021/05/29 09:32:35;;;;;;;9.88;3.95;;;;;;;24.16;38.29;98799.59;5083511;28;20043;-93
2021/05/29 09:35:06;;;;;;;7.85;3.70;;;;;;;23.96;38.88;98806.69;5088042;28;20098;-91
2021/05/29 09:37:32;;;;;;;8.48;4.05;;;;;;;23.31;39.71;98793.78;5083118;28;20070;-91
2021/05/29 09:40:03;;;;;;;6.97;3.90;;;;;;;23.63;39.02;98801.22;5090380;28;20036;-93
2021/05/29 09:45:34;;;;;;;10.60;3.92;;;;;;;23.86;39.09;98800.25;5113824;27;20857;-93
2021/05/29 09:48:32;;;;;;;10.45;4.22;;;;;;;24.35;39.06;98798.94;5112860;28;20036;-91
2021/05/29 09:51:16;;;;;;;12.07;4.57;;;;;;;24.74;36.94;98807.44;5106353;28;20452;-91
2021/05/29 09:53:43;;;;;;;11.20;4.45;;;;;;;24.64;38.06;98803.81;5113085;28;20043;-93
2021/05/29 09:56:23;;;;;;;8.30;3.50;;;;;;;24.83;37.76;98802.22;5107990;28;20093;-90
2021/05/29 09:59:00;;;;;;;8.63;3.78;;;;;;;24.67;37.68;98799.97;5108008;28;20066;-88
2021/05/29 10:02:08;;;;;;;6.47;3.45;;;;;;;24.59;38.21;98795.16;5116230;28;20044;-92
2021/05/29 10:07:43;;;;;;;8.40;3.40;;;;;;;24.58;38.72;98799.72;5179220;27;20869;-92
2021/05/29 10:10:09;;;;;;;9.55;3.92;;;;;;;24.78;37.45;98800.75;5174352;27;20053;-95
2021/05/29 10:12:35;;;;;;;8.50;4.30;;;;;;;25.10;37.84;98782.69;5176537;27;20091;-91
2021/05/29 10:15:01;;;;;;;10.35;4.15;;;;;;;25.15;36.85;98783.97;5175724;27;20030;-92
2021/05/29 10:17:30;;;;;;;9.32;3.80;;;;;;;25.23;37.80;98782.50;5174541;27;20043;-94
2021/05/29 10:19:56;;;;;;;;;;;;;;;25.30;36.76;98791.84;5180732;27;20098;-92
2021/05/29 10:22:23;;;;;;;6.47;3.40;;;;;;;25.34;36.88;98787.88;5174518;27;19947;-91
2021/05/29 10:24:50;;;;;;;11.37;3.60;;;;;;;25.03;38.25;98771.47;5175448;27;20054;-92
2021/05/29 10:30:22;;;;;;;7.72;3.70;;;;;;;25.74;36.52;98774.31;5112043;27;20750;-91
2021/05/29 10:33:11;;;;;;;8.10;4.13;;;;;;;25.42;37.62;98769.00;5111906;28;20131;-90
2021/05/29 10:38:44;;;;;;;8.50;3.80;;;;;;;25.25;38.04;98769.63;5090731;27;20393;-91
2021/05/29 10:41:10;;;;;;;6.35;3.70;;;;;;;25.64;36.46;98761.66;5091969;28;20044;-94
2021/05/29 10:43:36;;;;;;;9.18;3.58;;;;;;;26.05;34.64;98770.69;5091595;28;20040;-92
2021/05/29 10:46:10;;;;;;;7.15;3.60;;;;;;;25.98;35.91;98754.91;5090270;28;20103;-93
2021/05/29 10:48:47;;;;;;;6.68;4.00;;;;;;;26.32;36.03;98750.94;5090589;28;20048;-93
2021/05/29 10:51:15;;;;;;;8.20;4.38;;;;;;;26.18;34.38;98749.50;5091162;28;20393;-90
2021/05/29 10:53:45;;;;;;;;;;;;;;;26.30;35.45;98748.34;5078968;28;20562;-92
2021/05/29 10:56:33;;;;;;;9.23;3.60;;;;;;;26.35;33.51;98747.91;5089517;28;19920;-91
2021/05/29 10:59:01;;;;;;;8.05;3.65;;;;;;;25.49;35.53;98751.13;5089165;28;20047;-92
2021/05/29 11:02:01;;;;;;;6.18;3.63;;;;;;;25.07;36.17;98744.81;5091714;28;20040;-92
2021/05/29 11:04:28;;;;;;;7.20;3.72;;;;;;;25.43;35.24;98735.31;5085463;28;20090;-94
2021/05/29 11:06:59;;;;;;;9.65;3.30;;;;;;;25.57;35.32;98736.81;5094887;28;20041;-91
2021/05/29 11:09:49;;;;;;;9.95;3.72;;;;;;;26.05;34.62;98738.00;5094119;28;20089;-91
2021/05/29 11:12:16;;;;;;;8.73;3.67;;;;;;;26.18;35.19;98738.59;5092527;28;20056;-90
2021/05/29 11:14:56;;;;;;;4.40;3.38;;;;;;;26.38;33.46;98731.28;5096537;28;20102;-91
2021/05/29 11:17:25;;;;;;;5.85;3.55;;;;;;;26.13;34.11;98732.69;5100444;28;20203;-91
2021/05/29 11:20:33;;;;;;;9.85;3.78;;;;;;;26.25;33.76;98726.09;5079555;28;20513;-93
2021/05/29 11:22:59;;;;;;;9.50;3.63;;;;;;;26.17;34.00;98713.16;5086876;28;20040;-94
2021/05/29 11:25:27;;;;;;;8.88;3.83;;;;;;;26.42;34.59;98708.19;5092542;28;20075;-93
2021/05/29 11:27:53;;;;;;;6.63;3.95;;;;;;;26.79;34.16;98699.28;5089749;28;20086;-94
2021/05/29 11:30:21;;;;;;;8.82;3.53;;;;;;;27.05;33.83;98692.16;5088850;28;20044;-91
2021/05/29 11:35:49;;;;;;;6.07;3.72;;;;;;;27.19;30.99;98700.88;5095275;27;20893;-92
2021/05/29 11:44:03;;;;;;;8.95;3.92;;;;;;;27.66;31.08;98681.75;5139737;27;20385;-93
2021/05/29 11:46:30;;;;;;;9.85;3.90;;;;;;;27.69;30.92;98665.03;5135512;27;20050;-93
2021/05/29 11:49:01;;;;;;;5.55;3.28;;;;;;;27.88;30.88;98674.16;5134700;27;20035;-93
2021/05/29 11:51:28;;;;;;;7.18;3.60;;;;;;;27.90;31.70;98670.25;5133190;28;20403;-91
2021/05/29 11:53:57;;;;;;;7.50;3.70;;;;;;;28.15;30.69;98667.78;5134941;27;20043;-92
2021/05/29 11:56:30;;;;;;;6.55;3.55;;;;;;;28.29;30.50;98652.72;5134100;27;20038;-90
2021/05/29 11:58:56;;;;;;;6.10;3.55;;;;;;;28.28;30.55;98660.06;5130473;28;20060;-94
2021/05/29 12:01:25;;;;;;;7.28;3.38;;;;;;;28.34;29.79;98658.56;5129410;28;20043;-91
2021/05/29 12:03:53;;;;;;;7.20;3.60;;;;;;;28.64;29.01;98652.69;5132013;28;20054;-91
2021/05/29 12:06:42;;;;;;;8.07;3.60;;;;;;;28.00;29.06;98664.75;5134851;27;20105;-89
2021/05/29 12:09:10;;;;;;;6.30;3.58;;;;;;;28.35;28.48;98643.88;5128765;28;20042;-91
2021/05/29 12:11:38;;;;;;;6.57;3.50;;;;;;;28.76;28.68;98644.22;5139894;27;20035;-93
2021/05/29 12:14:10;;;;;;;5.80;3.40;;;;;;;28.51;28.07;98643.19;5143225;28;20111;-92
2021/05/29 12:16:40;;;;;;;8.50;3.50;;;;;;;27.19;31.84;98644.41;5135481;27;20039;-92
2021/05/29 12:19:06;;;;;;;5.95;3.30;;;;;;;28.03;31.07;98651.59;5137071;27;20456;-93